createdAt,value
2023-01-17T00:01:40.429Z,5.85
2023-01-17T00:05:05.015Z,5.92
2023-01-17T00:08:30.191Z,6.14
2023-01-17T00:11:37.793Z,6.08
2023-01-17T00:14:44.214Z,5.93
2023-01-17T00:17:50.744Z,6.12
2023-01-17T00:21:14.260Z,5.92
2023-01-17T00:24:38.149Z,5.95
2023-01-17T00:27:44.827Z,5.86
2023-01-17T00:30:50.202Z,5.94
2023-01-17T00:33:55.539Z,6.17
2023-01-17T00:37:00.673Z,6.10
2023-01-17T00:40:06.751Z,6.07
2023-01-17T00:43:33.698Z,5.99
2023-01-17T00:46:57.606Z,6.06
2023-01-17T00:50:21.419Z,6.10
2023-01-17T00:53:45.350Z,6.19
2023-01-17T00:57:09.397Z,6.28
2023-01-17T01:00:37.303Z,6.38
2023-01-17T01:04:01.419Z,6.35
2023-01-17T01:07:25.284Z,6.22
2023-01-17T01:10:49.222Z,6.10
2023-01-17T01:14:13.710Z,6.02
2023-01-17T01:17:38.923Z,5.99
2023-01-17T01:21:02.991Z,6.16
2023-01-17T01:24:26.643Z,6.15
2023-01-17T01:27:50.486Z,6.08
2023-01-17T01:31:13.965Z,6.01
2023-01-17T01:34:22.076Z,6.08
2023-01-17T01:37:28.665Z,6.01
2023-01-17T01:40:35.217Z,5.95
2023-01-17T01:43:45.107Z,5.71
2023-01-17T01:46:51.571Z,5.72
2023-01-17T01:50:01.539Z,5.93
2023-01-17T01:53:09.163Z,5.96
2023-01-17T01:56:16.981Z,5.97
2023-01-17T01:59:24.291Z,6.08
2023-01-17T02:02:32.360Z,5.99
2023-01-17T02:05:42.537Z,5.90
2023-01-17T02:08:50.230Z,5.92
2023-01-17T02:11:56.659Z,5.88
2023-01-17T02:15:03.427Z,5.83
2023-01-17T02:18:17.755Z,5.89
2023-01-17T02:21:27.469Z,5.73
2023-01-17T02:25:00.491Z,5.62
2023-01-17T02:28:28.829Z,5.35
2023-01-17T02:31:46.318Z,5.46
2023-01-17T02:34:59.419Z,5.27
2023-01-17T02:38:16.170Z,5.39
2023-01-17T02:41:26.332Z,5.39
2023-01-17T02:44:41.551Z,5.30
2023-01-17T02:47:49.249Z,5.43
2023-01-17T02:51:12.842Z,5.43
2023-01-17T02:54:49.401Z,5.46
2023-01-17T02:58:08.541Z,5.38
2023-01-17T03:01:27.814Z,5.22
2023-01-17T03:04:41.817Z,5.18
2023-01-17T03:07:48.697Z,5.08
2023-01-17T03:10:55.491Z,5.04
2023-01-17T03:14:01.778Z,4.99
2023-01-17T03:17:09.184Z,4.88
2023-01-17T03:20:18.088Z,4.77
2023-01-17T03:23:24.807Z,4.74
2023-01-17T03:26:31.846Z,4.83
2023-01-17T03:29:38.089Z,4.74
2023-01-17T03:32:44.625Z,4.79
2023-01-17T03:35:52.829Z,4.69
2023-01-17T03:39:00.181Z,5.13
2023-01-17T03:42:06.996Z,5.09
2023-01-17T03:45:14.350Z,5.07
2023-01-17T03:48:20.615Z,5.02
2023-01-17T03:51:29.845Z,5.16
2023-01-17T03:54:37.042Z,5.08
2023-01-17T03:57:43.182Z,4.95
2023-01-17T04:00:49.589Z,5.21
2023-01-17T04:03:58.793Z,5.18
2023-01-17T04:07:06.761Z,4.84
2023-01-17T04:10:13.363Z,4.84
2023-01-17T04:13:19.632Z,5.02
2023-01-17T04:16:30.293Z,5.01
2023-01-17T04:19:38.238Z,5.01
2023-01-17T04:22:51.713Z,4.82
2023-01-17T04:25:57.933Z,4.75
2023-01-17T04:29:04.727Z,4.90
2023-01-17T04:32:11.216Z,4.99
2023-01-17T04:35:17.368Z,4.67
2023-01-17T04:38:25.755Z,4.60
2023-01-17T04:41:32.592Z,4.56
2023-01-17T04:44:38.961Z,4.51
2023-01-17T04:47:45.500Z,4.47
2023-01-17T04:50:52.186Z,4.57
2023-01-17T04:54:00.115Z,4.71
2023-01-17T04:57:06.210Z,4.75
2023-01-17T05:00:13.637Z,4.98
2023-01-17T05:03:20.416Z,4.92
2023-01-17T05:06:26.625Z,4.91
2023-01-17T05:09:34.540Z,4.94
2023-01-17T05:12:41.077Z,4.78
2023-01-17T05:15:52.947Z,4.66
2023-01-17T05:18:59.657Z,4.93
2023-01-17T05:22:15.046Z,5.04
2023-01-17T05:25:23.235Z,4.96
2023-01-17T05:28:29.391Z,4.94
2023-01-17T05:31:36.300Z,5.07
2023-01-17T05:34:42.580Z,5.20
2023-01-17T05:37:50.155Z,4.95
2023-01-17T05:41:00.558Z,4.93
2023-01-17T05:44:07.011Z,5.06
2023-01-17T05:47:13.168Z,4.93
2023-01-17T05:50:22.852Z,4.79
2023-01-17T05:53:31.620Z,4.78
2023-01-17T05:56:39.139Z,4.65
2023-01-17T05:59:45.478Z,4.96
2023-01-17T06:02:53.996Z,5.13
2023-01-17T06:06:00.313Z,5.17
2023-01-17T06:09:06.419Z,5.27
2023-01-17T06:12:14.024Z,4.97
2023-01-17T06:15:20.378Z,5.20
2023-01-17T06:18:26.871Z,5.04
2023-01-17T06:21:33.251Z,5.20
2023-01-17T06:24:39.455Z,4.87
2023-01-17T06:27:47.573Z,5.02
2023-01-17T06:30:53.901Z,5.07
2023-01-17T06:34:03.469Z,5.39
2023-01-17T06:37:09.991Z,5.26
2023-01-17T06:40:16.973Z,5.30
2023-01-17T06:43:24.792Z,5.30
2023-01-17T06:46:31.405Z,5.27
2023-01-17T06:49:37.723Z,5.44
2023-01-17T06:52:44.533Z,5.44
2023-01-17T06:55:50.727Z,5.46
2023-01-17T06:58:58.451Z,5.48
2023-01-17T07:02:04.775Z,5.64
2023-01-17T07:05:11.478Z,5.74
2023-01-17T07:08:18.630Z,5.84
2023-01-17T07:11:25.005Z,5.74
2023-01-17T07:14:33.262Z,5.88
2023-01-17T07:17:39.807Z,5.86
2023-01-17T07:20:45.992Z,5.93
2023-01-17T07:23:52.383Z,6.09
2023-01-17T07:26:58.586Z,6.39
2023-01-17T07:30:07.182Z,6.32
2023-01-17T07:33:13.254Z,6.57
2023-01-17T07:36:19.761Z,6.15
2023-01-17T07:39:26.251Z,6.45
2023-01-17T07:42:32.281Z,6.36
2023-01-17T07:45:42.401Z,6.32
2023-01-17T07:48:48.655Z,6.14
2023-01-17T07:51:55.648Z,6.31
2023-01-17T07:55:01.992Z,5.79
2023-01-17T07:58:08.233Z,5.85
2023-01-17T08:01:17.568Z,6.37
2023-01-17T08:04:26.878Z,6.48
2023-01-17T08:07:33.207Z,6.19
2023-01-17T08:10:39.611Z,5.83
2023-01-17T08:13:46.241Z,6.02
2023-01-17T08:17:11.239Z,6.28
2023-01-17T08:20:18.155Z,6.58
2023-01-17T08:23:25.528Z,6.50
2023-01-17T08:26:32.141Z,6.55
2023-01-17T08:29:41.500Z,6.70
2023-01-17T08:32:49.766Z,6.74
2023-01-17T08:35:56.739Z,6.99
2023-01-17T08:39:03.244Z,6.80
2023-01-17T08:42:09.635Z,6.83
2023-01-17T08:45:16.170Z,6.89
2023-01-17T08:48:24.222Z,6.90
2023-01-17T08:51:32.575Z,7.01
2023-01-17T08:54:39.103Z,7.22
2023-01-17T08:57:45.601Z,7.23
2023-01-17T09:00:51.923Z,7.04
2023-01-17T09:03:59.745Z,7.42
2023-01-17T09:07:08.647Z,7.28
2023-01-17T09:10:15.082Z,7.29
2023-01-17T09:13:21.414Z,7.77
2023-01-17T09:16:27.965Z,7.58
2023-01-17T09:19:35.636Z,7.67
2023-01-17T09:22:41.969Z,7.70
2023-01-17T09:25:53.814Z,8.01
2023-01-17T14:21:35.797Z,9.34
2023-01-17T14:24:59.134Z,9.35
2023-01-17T14:28:21.374Z,9.40
2023-01-17T14:31:29.192Z,9.53
2023-01-17T14:34:36.087Z,9.56
2023-01-17T14:37:47.794Z,9.30
2023-01-17T14:40:57.034Z,9.32
2023-01-17T14:44:03.306Z,9.34
2023-01-17T14:47:14.299Z,9.21
2023-01-17T14:50:23.657Z,9.35
2023-01-17T14:53:32.716Z,9.39
2023-01-17T14:56:39.022Z,9.25
2023-01-17T14:59:46.513Z,9.27
2023-01-17T15:03:02.347Z,9.17
2023-01-17T15:06:14.848Z,9.24
2023-01-17T15:09:25.999Z,9.31
2023-01-17T15:12:38.915Z,9.25
2023-01-17T15:15:45.293Z,9.34
2023-01-17T15:18:52.096Z,9.26
2023-01-17T15:21:59.014Z,9.27
2023-01-17T15:25:16.361Z,9.31
2023-01-17T15:28:22.723Z,9.18
2023-01-17T15:31:41.159Z,9.10
2023-01-17T15:34:50.216Z,9.09
2023-01-17T15:37:58.415Z,9.02
2023-01-17T15:41:17.210Z,8.94
2023-01-17T15:44:39.087Z,9.07
2023-01-17T15:47:54.077Z,9.12
2023-01-17T15:51:02.943Z,9.12
2023-01-17T15:54:44.537Z,9.04
2023-01-17T15:57:52.349Z,9.13
2023-01-17T16:00:59.110Z,9.17
2023-01-17T16:04:05.656Z,9.17
2023-01-17T16:07:19.823Z,9.07
2023-01-17T16:10:28.940Z,9.03
2023-01-17T16:13:42.344Z,8.96
2023-01-17T16:16:53.391Z,9.20
2023-01-17T16:20:00.374Z,9.12
2023-01-17T16:23:06.660Z,9.25
2023-01-17T16:26:13.021Z,9.14
2023-01-17T16:29:20.642Z,9.12
2023-01-17T16:32:28.734Z,9.18
2023-01-17T16:35:35.888Z,9.28
2023-01-17T16:38:45.151Z,9.15
2023-01-17T16:41:51.562Z,9.25
2023-01-17T16:44:59.129Z,9.31
2023-01-17T16:48:05.799Z,9.31
2023-01-17T16:51:13.500Z,9.12
2023-01-17T16:54:20.070Z,9.22
2023-01-17T16:57:26.614Z,9.20
2023-01-17T17:00:34.324Z,9.31
2023-01-17T17:03:41.274Z,9.30
2023-01-17T17:06:47.837Z,9.34
2023-01-17T17:09:54.335Z,9.43
2023-01-17T17:13:02.838Z,9.43
2023-01-17T17:16:19.743Z,9.23
2023-01-17T17:19:30.094Z,9.16
2023-01-17T17:22:36.586Z,9.05
2023-01-17T17:25:43.257Z,8.90
2023-01-17T17:28:53.161Z,8.84
2023-01-17T17:32:01.374Z,8.99
2023-01-17T17:35:08.390Z,8.77
2023-01-17T17:38:14.709Z,8.69
2023-01-17T17:41:23.088Z,8.60
2023-01-17T17:44:29.626Z,8.56
2023-01-17T17:47:37.573Z,8.46
2023-01-17T17:50:44.141Z,8.69
2023-01-17T17:53:52.752Z,8.65
2023-01-17T17:56:59.219Z,8.48
2023-01-17T18:00:07.305Z,8.38
2023-01-17T18:03:15.356Z,8.42
2023-01-17T18:06:22.345Z,8.48
2023-01-17T18:09:29.089Z,8.51
2023-01-17T18:12:35.218Z,8.37
2023-01-17T18:15:41.538Z,8.28
2023-01-17T18:18:51.288Z,8.32
2023-01-17T18:21:58.268Z,8.37
2023-01-17T18:25:05.007Z,8.39
2023-01-17T18:28:11.564Z,8.26
2023-01-17T18:31:18.295Z,8.36
2023-01-17T18:34:29.485Z,8.34
2023-01-17T18:37:35.836Z,8.31
2023-01-17T18:40:42.278Z,8.33
2023-01-17T18:43:49.223Z,8.33
2023-01-17T18:46:58.259Z,8.19
2023-01-17T18:50:06.433Z,8.26
2023-01-17T18:53:12.964Z,8.27
2023-01-17T18:56:21.292Z,8.22
2023-01-17T18:59:27.988Z,8.28
2023-01-17T19:02:34.052Z,8.41
2023-01-17T19:05:41.852Z,8.79
2023-01-17T19:08:49.342Z,8.80
2023-01-17T19:11:57.081Z,8.96
2023-01-17T19:15:03.713Z,8.84
2023-01-17T19:18:10.149Z,8.76
2023-01-17T19:21:20.568Z,8.77
2023-01-17T19:24:27.435Z,8.75
2023-01-17T19:27:33.506Z,8.75
2023-01-17T19:30:40.793Z,8.90
2023-01-17T19:33:48.166Z,8.81
2023-01-17T19:36:56.559Z,8.94
2023-01-17T19:40:04.305Z,8.89
2023-01-17T19:43:11.613Z,8.83
2023-01-17T19:46:19.669Z,8.82
2023-01-17T19:49:25.952Z,8.97
2023-01-17T19:52:33.721Z,8.92
2023-01-17T19:55:40.696Z,8.92
2023-01-17T19:58:48.360Z,8.83
2023-01-17T20:01:54.952Z,8.89
2023-01-17T20:05:01.670Z,8.99
2023-01-17T20:08:10.012Z,8.90
2023-01-17T20:11:19.294Z,8.98
2023-01-17T20:14:25.554Z,9.04
2023-01-17T20:17:33.876Z,9.01
2023-01-17T20:20:56.411Z,9.18
2023-01-17T20:24:05.256Z,9.20
2023-01-17T20:27:11.808Z,9.18
2023-01-17T20:30:20.758Z,9.31
2023-01-17T20:33:28.720Z,9.23
2023-01-17T20:36:37.066Z,9.20
2023-01-17T20:39:45.624Z,9.15
2023-01-17T20:42:52.207Z,9.16
2023-01-17T20:45:58.358Z,9.13
2023-01-17T20:49:07.810Z,9.03
2023-01-17T20:52:15.444Z,9.11
2023-01-17T20:55:24.305Z,9.17
2023-01-17T20:58:32.136Z,9.28
2023-01-17T21:01:39.382Z,9.24
2023-01-17T21:04:45.649Z,9.39
2023-01-17T21:07:51.943Z,9.36
2023-01-17T21:10:59.766Z,9.29
2023-01-17T21:14:06.882Z,9.38
2023-01-17T21:17:16.235Z,9.24
2023-01-17T21:20:22.356Z,9.21
2023-01-17T21:23:29.471Z,9.24
2023-01-17T21:26:39.010Z,9.29
2023-01-17T21:29:45.661Z,9.16
2023-01-17T21:32:52.227Z,9.22
2023-01-17T21:36:08.611Z,9.23
2023-01-17T21:39:16.852Z,9.17
2023-01-17T21:42:24.700Z,9.13
2023-01-17T21:45:32.095Z,9.10
2023-01-17T21:48:39.703Z,9.05
2023-01-17T21:52:03.787Z,9.02
2023-01-17T21:55:27.848Z,8.92
2023-01-17T21:58:44.682Z,9.01
2023-01-17T22:01:50.819Z,8.93
2023-01-17T22:04:57.173Z,8.89
2023-01-17T22:08:15.661Z,8.86
2023-01-17T22:11:23.521Z,8.81
2023-01-17T22:14:30.881Z,8.83
2023-01-17T22:17:38.428Z,8.80
2023-01-17T22:20:44.978Z,8.84
2023-01-17T22:23:53.840Z,8.96
2023-01-17T22:27:00.530Z,8.93
2023-01-17T22:30:13.060Z,8.96
2023-01-17T22:33:19.494Z,8.85
2023-01-17T22:36:26.450Z,8.92
2023-01-17T22:39:33.250Z,8.85
2023-01-17T22:42:39.867Z,8.67
2023-01-17T22:45:47.801Z,8.76
2023-01-17T22:48:55.767Z,8.75
2023-01-17T22:52:02.118Z,8.63
2023-01-17T22:55:09.047Z,8.73
2023-01-17T22:58:15.589Z,8.62
2023-01-17T23:01:24.868Z,8.70
2023-01-17T23:04:31.151Z,8.73
2023-01-17T23:07:43.627Z,8.66
2023-01-17T23:11:07.357Z,8.67
2023-01-17T23:14:16.286Z,8.74
2023-01-17T23:17:43.023Z,8.66
2023-01-17T23:20:49.526Z,8.75
2023-01-17T23:23:56.097Z,8.65
2023-01-17T23:27:20.025Z,8.66
2023-01-17T23:30:30.283Z,8.62
2023-01-17T23:33:37.797Z,8.59
2023-01-17T23:36:44.231Z,8.57
2023-01-17T23:39:50.751Z,8.57
2023-01-17T23:43:14.532Z,8.52
2023-01-17T23:46:21.240Z,8.38
2023-01-17T23:49:31.524Z,8.41
2023-01-17T23:52:38.131Z,8.43
2023-01-17T23:55:46.958Z,8.42
2023-01-17T23:58:53.504Z,8.35
